THY92K LTFM-OPIS
Flight info
| Callsign | THY92K |
|---|---|
| Flight time | N/A |
| Altitude | 37000 |
| Route | VICEN UT380 ASMAP UL333 LATGA UT363 GURBU UA4 ERZ UB374 INDUR DCT PEMAN DCT ERLEV M11 RODAR A909 NINOP/N0471F390 A909 LEMOD N644 REGET G325 LAKRA P500 HANGU J139 KALMI |
| Aircraft | B77W/H-SDE1E2E3FGHIJ2J3J4J5M1RWXY/LB1D1 |
Departure
| Time | N/A |
|---|---|
| Airport | İstanbul Airport (LTFM) |
Arrival
| Time | 2026-04-26 16:09 |
|---|---|
| Airport | Islamabad International Airport (OPIS) |
| Time | Latitude | Longitude | Altitude | Speed | Heading |
|---|---|---|---|---|---|
| 2026-04-26 15:01 | 36.09797 | 64.40626 | 37164 ft | 504 kts | 130° |
| 2026-04-26 15:01 | 36.05673 | 64.47628 | 37170 ft | 503 kts | 130° |
| 2026-04-26 15:02 | 36.01532 | 64.54601 | 37181 ft | 504 kts | 131° |
| 2026-04-26 15:02 | 35.97370 | 64.61569 | 37179 ft | 504 kts | 131° |
| 2026-04-26 15:03 | 35.93228 | 64.68482 | 37174 ft | 504 kts | 131° |
| 2026-04-26 15:03 | 35.89027 | 64.75485 | 37185 ft | 504 kts | 131° |
| 2026-04-26 15:04 | 35.84885 | 64.82379 | 37184 ft | 503 kts | 131° |
| 2026-04-26 15:04 | 35.80730 | 64.89276 | 37209 ft | 500 kts | 131° |
| 2026-04-26 15:05 | 35.76584 | 64.96147 | 37199 ft | 500 kts | 131° |
| 2026-04-26 15:05 | 35.72433 | 65.03012 | 37182 ft | 500 kts | 131° |
| 2026-04-26 15:06 | 35.68286 | 65.09858 | 37215 ft | 498 kts | 131° |
| 2026-04-26 15:06 | 35.64143 | 65.16685 | 37214 ft | 498 kts | 131° |
| 2026-04-26 15:07 | 35.57928 | 65.26899 | 37207 ft | 497 kts | 132° |
| 2026-04-26 15:07 | 35.53794 | 65.33673 | 37244 ft | 494 kts | 132° |
| 2026-04-26 15:08 | 35.49657 | 65.40440 | 37217 ft | 496 kts | 132° |
| 2026-04-26 15:08 | 35.45508 | 65.47215 | 37204 ft | 497 kts | 132° |
| 2026-04-26 15:09 | 35.41352 | 65.53989 | 37204 ft | 497 kts | 132° |
| 2026-04-26 15:09 | 35.37195 | 65.60752 | 37191 ft | 497 kts | 132° |
| 2026-04-26 15:10 | 35.33737 | 65.66366 | 37179 ft | 497 kts | 131° |
| 2026-04-26 15:10 | 35.28872 | 65.74253 | 37189 ft | 496 kts | 132° |
| 2026-04-26 15:11 | 35.24735 | 65.80942 | 37188 ft | 496 kts | 132° |
| 2026-04-26 15:11 | 35.20538 | 65.87716 | 37153 ft | 496 kts | 132° |
| 2026-04-26 15:12 | 35.16365 | 65.94440 | 37180 ft | 497 kts | 132° |
| 2026-04-26 15:12 | 35.12175 | 66.01175 | 37190 ft | 499 kts | 132° |
| 2026-04-26 15:13 | 35.07990 | 66.07892 | 37166 ft | 501 kts | 132° |
| 2026-04-26 15:13 | 35.03770 | 66.14659 | 37163 ft | 501 kts | 132° |
| 2026-04-26 15:14 | 34.99550 | 66.21407 | 37174 ft | 500 kts | 132° |
| 2026-04-26 15:14 | 34.95320 | 66.28150 | 37149 ft | 501 kts | 132° |
| 2026-04-26 15:15 | 34.91052 | 66.34878 | 37130 ft | 503 kts | 133° |
| 2026-04-26 15:15 | 34.86772 | 66.41605 | 37155 ft | 502 kts | 133° |
| 2026-04-26 15:16 | 34.82500 | 66.48317 | 37156 ft | 501 kts | 133° |
| 2026-04-26 15:16 | 34.78231 | 66.55017 | 37160 ft | 501 kts | 133° |
| 2026-04-26 15:17 | 34.74672 | 66.60591 | 37142 ft | 502 kts | 133° |
| 2026-04-26 15:17 | 34.69660 | 66.68431 | 37136 ft | 501 kts | 133° |
| 2026-04-26 15:18 | 34.65380 | 66.75109 | 37143 ft | 501 kts | 133° |
| 2026-04-26 15:18 | 34.61086 | 66.81793 | 37160 ft | 503 kts | 133° |
| 2026-04-26 15:19 | 34.56778 | 66.88497 | 37132 ft | 504 kts | 133° |
| 2026-04-26 15:19 | 34.52459 | 66.95193 | 37144 ft | 504 kts | 133° |
| 2026-04-26 15:20 | 34.48862 | 67.00737 | 37110 ft | 504 kts | 133° |
| 2026-04-26 15:20 | 34.44532 | 67.07399 | 37139 ft | 502 kts | 133° |
| 2026-04-26 15:21 | 34.40207 | 67.14042 | 37136 ft | 502 kts | 133° |
| 2026-04-26 15:21 | 34.35886 | 67.20674 | 37144 ft | 501 kts | 133° |
| 2026-04-26 15:22 | 34.31576 | 67.27272 | 37158 ft | 498 kts | 133° |
| 2026-04-26 15:22 | 34.27276 | 67.33852 | 37135 ft | 499 kts | 133° |
| 2026-04-26 15:23 | 34.22966 | 67.40428 | 37130 ft | 500 kts | 133° |
| 2026-04-26 15:23 | 34.18646 | 67.47010 | 37136 ft | 500 kts | 133° |
| 2026-04-26 15:24 | 34.14329 | 67.53574 | 37135 ft | 499 kts | 133° |
| 2026-04-26 15:24 | 34.10012 | 67.60123 | 37136 ft | 499 kts | 133° |
| 2026-04-26 15:25 | 34.05684 | 67.66680 | 37138 ft | 500 kts | 133° |
| 2026-04-26 15:25 | 34.01346 | 67.73248 | 37129 ft | 501 kts | 133° |
| 2026-04-26 15:26 | 33.96998 | 67.79805 | 37135 ft | 501 kts | 133° |
| 2026-04-26 15:26 | 33.92616 | 67.86317 | 37103 ft | 501 kts | 133° |
| 2026-04-26 15:27 | 33.88246 | 67.92775 | 37118 ft | 501 kts | 133° |
| 2026-04-26 15:27 | 33.83838 | 67.99293 | 37108 ft | 503 kts | 133° |
| 2026-04-26 15:28 | 33.79423 | 68.05818 | 37081 ft | 503 kts | 133° |
| 2026-04-26 15:28 | 33.75011 | 68.12329 | 37087 ft | 501 kts | 133° |
| 2026-04-26 15:29 | 33.70600 | 68.18822 | 37099 ft | 502 kts | 133° |
| 2026-04-26 15:30 | 33.61742 | 68.31834 | 37063 ft | 503 kts | 133° |
| 2026-04-26 15:30 | 33.57309 | 68.38327 | 37030 ft | 503 kts | 133° |
| 2026-04-26 15:31 | 33.50599 | 68.47984 | 37002 ft | 502 kts | 134° |
| 2026-04-26 15:32 | 33.45257 | 68.57029 | 37006 ft | 508 kts | 112° |
| 2026-04-26 15:32 | 33.44159 | 68.62537 | 37007 ft | 512 kts | 97° |
| 2026-04-26 15:32 | 33.44099 | 68.66789 | 36998 ft | 510 kts | 88° |
| 2026-04-26 15:33 | 33.44441 | 68.75287 | 37003 ft | 512 kts | 88° |
| 2026-04-26 15:33 | 33.44740 | 68.83805 | 37004 ft | 512 kts | 89° |
| 2026-04-26 15:34 | 33.44980 | 68.92332 | 37020 ft | 512 kts | 89° |
| 2026-04-26 15:34 | 33.45193 | 69.00854 | 37022 ft | 512 kts | 89° |
| 2026-04-26 15:35 | 33.45400 | 69.09372 | 37026 ft | 512 kts | 89° |
| 2026-04-26 15:35 | 33.45870 | 69.17872 | 37040 ft | 512 kts | 86° |
| 2026-04-26 15:36 | 33.46311 | 69.26369 | 37025 ft | 510 kts | 89° |
| 2026-04-26 15:36 | 33.46546 | 69.34795 | 37029 ft | 509 kts | 90° |
| 2026-04-26 15:37 | 33.46692 | 69.43324 | 37009 ft | 509 kts | 90° |
| 2026-04-26 15:37 | 33.46827 | 69.51722 | 37012 ft | 508 kts | 90° |
| 2026-04-26 15:38 | 33.46969 | 69.60177 | 36986 ft | 508 kts | 90° |
| 2026-04-26 15:38 | 33.47112 | 69.68632 | 36947 ft | 508 kts | 90° |
| 2026-04-26 15:39 | 33.47251 | 69.77089 | 36945 ft | 508 kts | 90° |
| 2026-04-26 15:39 | 33.47361 | 69.84117 | 36922 ft | 508 kts | 90° |
| 2026-04-26 15:40 | 33.47508 | 69.94003 | 36875 ft | 508 kts | 90° |
| 2026-04-26 15:40 | 33.47628 | 70.02464 | 36888 ft | 508 kts | 90° |
| 2026-04-26 15:41 | 33.47742 | 70.10935 | 36875 ft | 509 kts | 90° |
| 2026-04-26 15:41 | 33.47851 | 70.19418 | 36875 ft | 509 kts | 90° |
| 2026-04-26 15:42 | 33.47954 | 70.27913 | 36862 ft | 511 kts | 91° |
| 2026-04-26 15:42 | 33.48051 | 70.36433 | 36878 ft | 512 kts | 91° |
| 2026-04-26 15:43 | 33.48142 | 70.44914 | 36871 ft | 513 kts | 91° |
| 2026-04-26 15:44 | 33.48270 | 70.57759 | 36881 ft | 515 kts | 91° |
| 2026-04-26 15:44 | 33.48349 | 70.66268 | 36747 ft | 503 kts | 91° |
| 2026-04-26 15:44 | 33.48385 | 70.70427 | 36408 ft | 496 kts | 91° |
| 2026-04-26 15:45 | 33.48450 | 70.78626 | 35520 ft | 489 kts | 91° |
| 2026-04-26 15:45 | 33.48480 | 70.82693 | 35054 ft | 487 kts | 90° |
| 2026-04-26 15:46 | 33.48537 | 70.90750 | 34199 ft | 480 kts | 90° |
| 2026-04-26 15:46 | 33.48564 | 70.94729 | 33826 ft | 475 kts | 90° |
| 2026-04-26 15:46 | 33.48589 | 70.98661 | 33462 ft | 469 kts | 90° |
| 2026-04-26 15:46 | 33.48628 | 71.01239 | 33197 ft | 466 kts | 88° |
| 2026-04-26 15:47 | 33.48914 | 71.06398 | 32554 ft | 463 kts | 85° |
| 2026-04-26 15:47 | 33.49439 | 71.14042 | 31642 ft | 458 kts | 85° |
| 2026-04-26 15:47 | 33.49696 | 71.17830 | 31209 ft | 454 kts | 85° |
| 2026-04-26 15:48 | 33.49943 | 71.21589 | 30815 ft | 451 kts | 85° |
| 2026-04-26 15:48 | 33.50181 | 71.25318 | 30409 ft | 448 kts | 85° |
| 2026-04-26 15:48 | 33.50413 | 71.29010 | 29923 ft | 440 kts | 85° |
| 2026-04-26 15:48 | 33.50639 | 71.32643 | 29151 ft | 436 kts | 85° |
| 2026-04-26 15:49 | 33.50863 | 71.36252 | 28355 ft | 433 kts | 85° |
| 2026-04-26 15:49 | 33.51084 | 71.39837 | 27623 ft | 429 kts | 85° |
| 2026-04-26 15:49 | 33.51303 | 71.43373 | 26974 ft | 423 kts | 85° |
| 2026-04-26 15:49 | 33.51517 | 71.46862 | 26353 ft | 417 kts | 85° |
| 2026-04-26 15:50 | 33.51726 | 71.50306 | 25729 ft | 412 kts | 86° |
| 2026-04-26 15:50 | 33.51929 | 71.53711 | 25111 ft | 408 kts | 86° |
| 2026-04-26 15:50 | 33.52130 | 71.57080 | 24492 ft | 403 kts | 85° |
| 2026-04-26 15:50 | 33.52328 | 71.60413 | 23898 ft | 399 kts | 85° |
| 2026-04-26 15:51 | 33.52524 | 71.63717 | 23297 ft | 395 kts | 85° |
| 2026-04-26 15:51 | 33.52717 | 71.66980 | 22706 ft | 388 kts | 85° |
| 2026-04-26 15:51 | 33.52903 | 71.70155 | 22314 ft | 377 kts | 85° |
| 2026-04-26 15:51 | 33.53084 | 71.73241 | 21914 ft | 365 kts | 85° |
| 2026-04-26 15:52 | 33.53258 | 71.76234 | 21543 ft | 355 kts | 85° |
| 2026-04-26 15:52 | 33.53429 | 71.79156 | 21078 ft | 351 kts | 85° |
| 2026-04-26 15:52 | 33.53600 | 71.82115 | 20512 ft | 359 kts | 86° |
| 2026-04-26 15:52 | 33.53715 | 71.84100 | 20229 ft | 362 kts | 86° |
| 2026-04-26 15:53 | 33.53949 | 71.88147 | 19692 ft | 366 kts | 86° |
| 2026-04-26 15:53 | 33.54130 | 71.91192 | 19349 ft | 367 kts | 85° |
| 2026-04-26 15:53 | 33.54258 | 71.94220 | 19006 ft | 360 kts | 88° |
| 2026-04-26 15:53 | 33.54398 | 71.97219 | 18560 ft | 361 kts | 85° |
| 2026-04-26 15:54 | 33.54605 | 72.00207 | 18191 ft | 360 kts | 84° |
| 2026-04-26 15:54 | 33.54825 | 72.03188 | 17992 ft | 356 kts | 85° |
| 2026-04-26 15:54 | 33.54919 | 72.06115 | 17993 ft | 350 kts | 89° |
| 2026-04-26 15:54 | 33.54904 | 72.08996 | 18007 ft | 352 kts | 90° |
| 2026-04-26 15:55 | 33.54864 | 72.11975 | 17631 ft | 363 kts | 91° |
| 2026-04-26 15:55 | 33.54827 | 72.15006 | 17224 ft | 363 kts | 90° |
| 2026-04-26 15:55 | 33.54801 | 72.18024 | 16818 ft | 361 kts | 90° |
| 2026-04-26 15:55 | 33.54784 | 72.21026 | 16415 ft | 359 kts | 90° |
| 2026-04-26 15:56 | 33.54773 | 72.24013 | 16022 ft | 357 kts | 90° |
| 2026-04-26 15:56 | 33.54765 | 72.26982 | 15625 ft | 355 kts | 90° |
| 2026-04-26 15:56 | 33.54758 | 72.29935 | 15226 ft | 354 kts | 90° |
| 2026-04-26 15:56 | 33.54750 | 72.32882 | 14824 ft | 352 kts | 90° |
| 2026-04-26 15:57 | 33.54742 | 72.35811 | 14428 ft | 351 kts | 90° |
| 2026-04-26 15:57 | 33.54733 | 72.38736 | 14014 ft | 350 kts | 90° |
| 2026-04-26 15:57 | 33.54653 | 72.41634 | 13598 ft | 346 kts | 98° |
| 2026-04-26 15:57 | 33.54248 | 72.43459 | 13303 ft | 339 kts | 112° |
| 2026-04-26 15:58 | 33.52943 | 72.46860 | 12791 ft | 335 kts | 114° |
| 2026-04-26 15:58 | 33.51998 | 72.49404 | 12396 ft | 334 kts | 113° |
| 2026-04-26 15:58 | 33.51079 | 72.51952 | 12016 ft | 333 kts | 113° |
| 2026-04-26 15:58 | 33.50169 | 72.54493 | 11629 ft | 332 kts | 113° |
| 2026-04-26 15:59 | 33.49266 | 72.57031 | 11243 ft | 330 kts | 111° |
| 2026-04-26 15:59 | 33.48629 | 72.59643 | 10844 ft | 326 kts | 100° |
| 2026-04-26 15:59 | 33.48262 | 72.62320 | 10485 ft | 325 kts | 97° |
| 2026-04-26 15:59 | 33.47948 | 72.65001 | 10116 ft | 325 kts | 97° |
| 2026-04-26 16:00 | 33.47625 | 72.67645 | 9947 ft | 317 kts | 97° |
| 2026-04-26 16:00 | 33.47290 | 72.70218 | 9788 ft | 309 kts | 98° |
| 2026-04-26 16:00 | 33.46950 | 72.72713 | 9663 ft | 300 kts | 98° |
| 2026-04-26 16:00 | 33.46603 | 72.75189 | 9237 ft | 302 kts | 98° |
| 2026-04-26 16:01 | 33.46251 | 72.77668 | 8890 ft | 302 kts | 98° |
| 2026-04-26 16:01 | 33.45902 | 72.80116 | 8536 ft | 302 kts | 98° |
| 2026-04-26 16:01 | 33.45542 | 72.82637 | 8109 ft | 304 kts | 98° |
| 2026-04-26 16:01 | 33.45189 | 72.85105 | 7724 ft | 306 kts | 98° |
| 2026-04-26 16:02 | 33.44826 | 72.87648 | 7361 ft | 306 kts | 98° |
| 2026-04-26 16:02 | 33.44472 | 72.90120 | 7041 ft | 305 kts | 98° |
| 2026-04-26 16:02 | 33.44114 | 72.92619 | 6725 ft | 304 kts | 98° |
| 2026-04-26 16:02 | 33.43872 | 72.94299 | 6423 ft | 301 kts | 98° |
| 2026-04-26 16:03 | 33.43421 | 72.97438 | 6193 ft | 275 kts | 97° |
| 2026-04-26 16:03 | 33.43470 | 72.99637 | 6049 ft | 259 kts | 70° |
| 2026-04-26 16:03 | 33.44352 | 73.01474 | 5889 ft | 258 kts | 43° |
| 2026-04-26 16:03 | 33.45758 | 73.02785 | 5619 ft | 256 kts | 25° |
| 2026-04-26 16:04 | 33.47403 | 73.03456 | 5321 ft | 247 kts | 9° |
| 2026-04-26 16:04 | 33.49053 | 73.03790 | 5151 ft | 232 kts | 359° |
| 2026-04-26 16:04 | 33.50529 | 73.03363 | 4864 ft | 210 kts | 323° |
| 2026-04-26 16:04 | 33.51400 | 73.02087 | 4652 ft | 197 kts | 292° |
| 2026-04-26 16:05 | 33.51835 | 73.00513 | 4495 ft | 202 kts | 289° |
| 2026-04-26 16:05 | 33.52235 | 72.98888 | 4193 ft | 203 kts | 285° |
| 2026-04-26 16:05 | 33.52518 | 72.97274 | 3887 ft | 191 kts | 282° |
| 2026-04-26 16:05 | 33.52743 | 72.95738 | 3513 ft | 189 kts | 282° |
| 2026-04-26 16:06 | 33.52984 | 72.94219 | 3341 ft | 181 kts | 283° |
| 2026-04-26 16:06 | 33.53211 | 72.92794 | 3110 ft | 166 kts | 283° |
| 2026-04-26 16:06 | 33.53411 | 72.91505 | 2885 ft | 148 kts | 284° |
| 2026-04-26 16:06 | 33.53593 | 72.90353 | 2731 ft | 140 kts | 283° |
| 2026-04-26 16:07 | 33.53772 | 72.89186 | 2544 ft | 144 kts | 282° |
| 2026-04-26 16:07 | 33.53946 | 72.88002 | 2330 ft | 143 kts | 281° |
| 2026-04-26 16:07 | 33.54137 | 72.86834 | 2170 ft | 143 kts | 280° |
| 2026-04-26 16:07 | 33.54320 | 72.85685 | 1994 ft | 139 kts | 280° |
| 2026-04-26 16:08 | 33.54439 | 72.84926 | 1882 ft | 140 kts | 279° |
| 2026-04-26 16:08 | 33.54616 | 72.83779 | 1769 ft | 134 kts | 279° |
| 2026-04-26 16:08 | 33.54765 | 72.82824 | 1769 ft | 96 kts | 281° |
| 2026-04-26 16:08 | 33.54858 | 72.82222 | 1765 ft | 51 kts | 280° |
| 2026-04-26 16:09 | 33.54914 | 72.81909 | 1767 ft | 35 kts | 285° |
| 2026-04-26 16:09 | 33.55016 | 72.81682 | 1768 ft | 28 kts | 307° |
| 2026-04-26 16:09 | 33.55128 | 72.81582 | 1767 ft | 20 kts | 351° |
| 2026-04-26 16:09 | 33.55266 | 72.81610 | 1771 ft | 20 kts | 13° |
| 2026-04-26 16:10 | 33.55324 | 72.81739 | 1775 ft | 20 kts | 100° |
| 2026-04-26 16:10 | 33.55299 | 72.81905 | 1774 ft | 20 kts | 100° |
| 2026-04-26 16:10 | 33.55273 | 72.82071 | 1774 ft | 20 kts | 100° |
| 2026-04-26 16:10 | 33.55247 | 72.82237 | 1775 ft | 20 kts | 100° |
| 2026-04-26 16:11 | 33.55222 | 72.82403 | 1776 ft | 20 kts | 101° |
| 2026-04-26 16:11 | 33.55196 | 72.82568 | 1776 ft | 20 kts | 100° |
| 2026-04-26 16:11 | 33.55172 | 72.82735 | 1776 ft | 20 kts | 100° |
| 2026-04-26 16:11 | 33.55152 | 72.82901 | 1773 ft | 20 kts | 86° |
| 2026-04-26 16:12 | 33.55217 | 72.83048 | 1776 ft | 20 kts | 56° |
| 2026-04-26 16:12 | 33.55266 | 72.83136 | 1776 ft | 9 kts | 56° |
| 2026-04-26 16:12 | 33.55349 | 72.83132 | 1779 ft | 3 kts | 325° |
| 2026-04-26 16:13 | 33.55367 | 72.83117 | 1778 ft | 1 kts | 326° |
| 2026-04-26 16:13 | 33.55374 | 72.83112 | 1778 ft | 1 kts | 326° |
| 2026-04-26 16:13 | 33.55375 | 72.83111 | 1778 ft | 0 kts | 326° |